Fascination — C6FM9 — position and weather

sailwx.info

Track history (hours):
 
Tides and Currents Weather Stations Pressure Air Temp Water Temp Dewpoint Dewpoint Depression Visibility Wind Speed Wind Dir Waves Ship Positions

Fascination

Operator: Carnival Cruise Lines

Last reported at 2016-Jul-24 04:06 UTC. Time now 2016-Jul-24 06:55 UTC.
Position N 18°11' W 064°58'.

Type: Ship. MMSI: 309682000.

Date/timePositionNaut miles runAvg speedWind from/ knotsBaromVisibWave heightAir tempDewpointWater temp
2016-Jul-24 04:06N 18°11' W 064°58'1316.4
2016-Jul-24 03:19N 18°07' W 064°45'6015.8
2016-Jul-23 23:32N 18°02' W 063°42'1715.7
2016-Jul-23 22:29N 18°01' W 063°25'1516.0
2016-Jul-23 21:33N 18°01' W 063°09'6 0.6
2016-Jul-23 10:33N 18°01' W 063°03'6 5.3
2016-Jul-23 09:27N 18°01' W 063°09'7 7.3
2016-Jul-23 08:33N 18°02' W 063°16'7 7.5
2016-Jul-23 07:33N 18°04' W 063°23'9 8.0
2016-Jul-23 06:24N 18°07' W 063°32'8 4.0
2016-Jul-23 04:29N 17°59' W 063°33'9 9.6
2016-Jul-23 03:32N 17°58' W 063°24'10 9.8
2016-Jul-23 02:31N 17°51' W 063°16'9 9.8
2016-Jul-23 01:33N 17°45' W 063°09'10 9.5
2016-Jul-23 00:32N 17°35' W 063°07'65 4.1
2016-Jul-22 08:33N 16°41' W 062°30'  
2016-Jul-18 23:06N 18°04' W 064°43'711.6
2016-Jul-18 22:32N 18°07' W 064°49'1010.5
2016-Jul-18 21:33N 18°15' W 064°55'2 0.2
2016-Jul-18 10:06N 18°18' W 064°55'68 6.2
2016-Jul-17 23:04N 18°28' W 066°07'0 0.0
2016-Jul-17 22:25N 18°28' W 066°07'0 0.0
2016-Jul-17 21:31N 18°28' W 066°07'0 0.0
2016-Jul-17 19:06N 18°28' W 066°07'0 0.0
2016-Jul-17 16:22N 18°28' W 066°07'0 0.0
2016-Jul-17 15:31N 18°28' W 066°07'0 0.0
2016-Jul-17 14:31N 18°28' W 066°07'0 0.0
2016-Jul-17 13:21N 18°28' W 066°07'0 0.0
2016-Jul-17 12:24N 18°28' W 066°07'0 0.0
2016-Jul-17 11:32N 18°28' W 066°07'0 0.0
2016-Jul-17 10:27N 18°28' W 066°07'6710.7
2016-Jul-17 04:12N 18°11' W 064°59'1316.1
2016-Jul-17 03:23N 18°07' W 064°45'6115.9
2016-Jul-16 23:32N 18°02' W 063°41'1716.2
2016-Jul-16 22:30N 18°01' W 063°23'1515.7
2016-Jul-16 21:33N 17°60' W 063°08'5 0.4
2016-Jul-16 10:27N 18°01' W 063°03'5 5.6
2016-Jul-16 09:33N 18°01' W 063°08'9 9.3
2016-Jul-16 08:33N 18°02' W 063°18'9 9.3
2016-Jul-16 07:32N 18°06' W 063°27'9 9.2
2016-Jul-16 06:34N 18°08' W 063°36'11 5.6
2016-Jul-16 04:32N 17°59' W 063°28'9 9.1
2016-Jul-16 03:33N 17°55' W 063°20'10 9.4
2016-Jul-16 02:32N 17°48' W 063°13'9 8.8
2016-Jul-16 01:31N 17°41' W 063°07'71 4.2
2016-Jul-15 08:33N 16°40' W 062°30'  
Track history (hours):
 
Tides and Currents Weather Stations Pressure Air Temp Water Temp Dewpoint Dewpoint Depression Visibility Wind Speed Wind Dir Waves Ship Positions

Fascination

Operator: Carnival Cruise Lines

Last reported at 2016-Jul-24 04:06 UTC. Time now 2016-Jul-24 06:55 UTC.
Position N 18°11' W 064°58'.

Type: Ship. MMSI: 309682000.

Date/timePositionNaut miles runAvg speedWind from/ knotsBaromVisibWave heightAir tempDewpointWater temp
2016-Jul-24 04:06N 18°11' W 064°58'1316.4
2016-Jul-24 03:19N 18°07' W 064°45'6015.8
2016-Jul-23 23:32N 18°02' W 063°42'1715.7
2016-Jul-23 22:29N 18°01' W 063°25'1516.0
2016-Jul-23 21:33N 18°01' W 063°09'6 0.6
2016-Jul-23 10:33N 18°01' W 063°03'6 5.3
2016-Jul-23 09:27N 18°01' W 063°09'7 7.3
2016-Jul-23 08:33N 18°02' W 063°16'7 7.5
2016-Jul-23 07:33N 18°04' W 063°23'9 8.0
2016-Jul-23 06:24N 18°07' W 063°32'8 4.0
2016-Jul-23 04:29N 17°59' W 063°33'9 9.6
2016-Jul-23 03:32N 17°58' W 063°24'10 9.8
2016-Jul-23 02:31N 17°51' W 063°16'9 9.8
2016-Jul-23 01:33N 17°45' W 063°09'10 9.5
2016-Jul-23 00:32N 17°35' W 063°07'65 4.1
2016-Jul-22 08:33N 16°41' W 062°30'  
2016-Jul-18 23:06N 18°04' W 064°43'711.6
2016-Jul-18 22:32N 18°07' W 064°49'1010.5
2016-Jul-18 21:33N 18°15' W 064°55'2 0.2
2016-Jul-18 10:06N 18°18' W 064°55'68 6.2
2016-Jul-17 23:04N 18°28' W 066°07'0 0.0
2016-Jul-17 22:25N 18°28' W 066°07'0 0.0
2016-Jul-17 21:31N 18°28' W 066°07'0 0.0
2016-Jul-17 19:06N 18°28' W 066°07'0 0.0
2016-Jul-17 16:22N 18°28' W 066°07'0 0.0
2016-Jul-17 15:31N 18°28' W 066°07'0 0.0
2016-Jul-17 14:31N 18°28' W 066°07'0 0.0
2016-Jul-17 13:21N 18°28' W 066°07'0 0.0
2016-Jul-17 12:24N 18°28' W 066°07'0 0.0
2016-Jul-17 11:32N 18°28' W 066°07'0 0.0
2016-Jul-17 10:27N 18°28' W 066°07'6710.7
2016-Jul-17 04:12N 18°11' W 064°59'1316.1
2016-Jul-17 03:23N 18°07' W 064°45'6115.9
2016-Jul-16 23:32N 18°02' W 063°41'1716.2
2016-Jul-16 22:30N 18°01' W 063°23'1515.7
2016-Jul-16 21:33N 17°60' W 063°08'5 0.4
2016-Jul-16 10:27N 18°01' W 063°03'5 5.6
2016-Jul-16 09:33N 18°01' W 063°08'9 9.3
2016-Jul-16 08:33N 18°02' W 063°18'9 9.3
2016-Jul-16 07:32N 18°06' W 063°27'9 9.2
2016-Jul-16 06:34N 18°08' W 063°36'11 5.6
2016-Jul-16 04:32N 17°59' W 063°28'9 9.1
2016-Jul-16 03:33N 17°55' W 063°20'10 9.4
2016-Jul-16 02:32N 17°48' W 063°13'9 8.8
2016-Jul-16 01:31N 17°41' W 063°07'71 4.2
2016-Jul-15 08:33N 16°40' W 062°30'  

Dump ship's entire track history